createdAt,value
2017-08-12T00:01:48.476Z,17.70
2017-08-12T00:04:16.750Z,17.60
2017-08-12T00:06:50.090Z,17.60
2017-08-12T00:09:33.583Z,17.60
2017-08-12T00:12:01.547Z,17.50
2017-08-12T00:14:29.076Z,17.50
2017-08-12T00:16:56.684Z,17.60
2017-08-12T00:19:24.177Z,17.60
2017-08-12T00:21:51.705Z,17.70
2017-08-12T00:24:19.288Z,17.70
2017-08-12T00:26:46.801Z,17.70
2017-08-12T00:29:14.278Z,17.70
2017-08-12T00:31:41.786Z,17.80
2017-08-12T00:34:09.317Z,17.70
2017-08-12T00:36:36.801Z,17.60
2017-08-12T00:39:04.301Z,17.60
2017-08-12T00:41:32.574Z,17.70
2017-08-12T00:44:00.836Z,17.70
2017-08-12T00:46:28.374Z,17.60
2017-08-12T00:48:55.874Z,17.70
2017-08-12T00:51:23.381Z,17.60
2017-08-12T00:53:50.885Z,17.60
2017-08-12T00:56:18.370Z,17.50
2017-08-12T00:58:45.884Z,17.40
2017-08-12T01:01:13.400Z,17.30
2017-08-12T01:03:40.914Z,17.20
2017-08-12T01:06:08.419Z,17.20
2017-08-12T01:08:35.935Z,17.10
2017-08-12T01:11:03.461Z,17.10
2017-08-12T01:13:30.954Z,17.00
2017-08-12T01:15:59.228Z,16.90
2017-08-12T01:18:26.728Z,16.80
2017-08-12T01:20:54.233Z,16.90
2017-08-12T01:23:21.713Z,16.90
2017-08-12T01:25:49.227Z,16.80
2017-08-12T01:28:16.743Z,16.80
2017-08-12T01:30:45.077Z,16.70
2017-08-12T01:33:12.571Z,16.70
2017-08-12T01:35:40.076Z,16.70
2017-08-12T01:38:07.599Z,16.70
2017-08-12T01:40:35.831Z,16.70
2017-08-12T01:43:03.318Z,16.60
2017-08-12T01:45:31.596Z,16.70
2017-08-12T01:47:59.090Z,16.60
2017-08-12T01:50:26.620Z,16.60
2017-08-12T01:52:54.129Z,16.60
2017-08-12T01:55:21.609Z,16.60
2017-08-12T01:57:49.110Z,16.60
2017-08-12T02:00:16.616Z,16.50
2017-08-12T02:02:44.159Z,16.50
2017-08-12T02:05:11.650Z,16.50
2017-08-12T02:07:39.165Z,16.60
2017-08-12T02:10:06.659Z,16.60
2017-08-12T02:12:34.146Z,16.50
2017-08-12T02:15:01.645Z,16.50
2017-08-12T02:17:29.133Z,16.40
2017-08-12T02:19:56.691Z,16.40
2017-08-12T02:22:24.208Z,16.30
2017-08-12T02:24:51.724Z,16.30
2017-08-12T02:27:19.228Z,16.20
2017-08-12T02:29:46.726Z,16.10
2017-08-12T02:32:14.218Z,16.10
2017-08-12T02:34:41.747Z,16.10
2017-08-12T02:37:09.249Z,16.10
2017-08-12T02:39:37.516Z,16.00
2017-08-12T02:42:05.773Z,16.00
2017-08-12T02:44:33.256Z,16.00
2017-08-12T02:47:01.557Z,16.00
2017-08-12T02:49:29.069Z,15.90
2017-08-12T02:51:56.569Z,16.00
2017-08-12T02:54:24.433Z,15.90
2017-08-12T02:56:51.925Z,16.00
2017-08-12T02:59:19.490Z,16.00
2017-08-12T03:04:23.709Z,15.90
2017-08-12T03:06:51.221Z,15.90
2017-08-12T03:09:19.460Z,15.80
2017-08-12T03:11:46.969Z,15.80
2017-08-12T03:14:15.224Z,15.80
2017-08-12T03:16:42.727Z,15.80
2017-08-12T03:19:10.239Z,15.90
2017-08-12T03:21:37.702Z,15.90
2017-08-12T03:24:05.243Z,15.90
2017-08-12T03:26:32.745Z,15.90
2017-08-12T03:29:01.015Z,15.90
2017-08-12T03:31:29.275Z,15.90
2017-08-12T03:33:56.781Z,15.90
2017-08-12T03:36:24.285Z,15.90
2017-08-12T03:38:51.817Z,15.90
2017-08-12T03:41:19.316Z,15.90
2017-08-12T03:43:47.602Z,15.90
2017-08-12T03:46:15.870Z,15.80
2017-08-12T03:48:44.159Z,15.80
2017-08-12T03:51:12.432Z,15.80
2017-08-12T03:53:40.685Z,15.80
2017-08-12T03:56:08.209Z,15.70
2017-08-12T03:58:35.706Z,15.80
2017-08-12T04:01:03.217Z,15.70
2017-08-12T04:03:30.726Z,15.70
2017-08-12T04:05:58.197Z,15.70
2017-08-12T04:08:26.460Z,15.60
2017-08-12T04:10:53.940Z,15.60
2017-08-12T04:13:22.209Z,15.60
2017-08-12T04:15:50.488Z,15.50
2017-08-12T04:18:17.988Z,15.50
2017-08-12T04:20:45.480Z,15.50
2017-08-12T04:23:12.992Z,15.50
2017-08-12T04:25:40.469Z,15.50
2017-08-12T04:28:07.959Z,15.50
2017-08-12T04:30:35.482Z,15.50
2017-08-12T04:33:02.975Z,15.50
2017-08-12T04:35:30.463Z,15.40
2017-08-12T04:37:57.983Z,15.40
2017-08-12T04:40:25.483Z,15.30
2017-08-12T04:42:53.772Z,15.30
2017-08-12T04:45:21.274Z,15.30
2017-08-12T04:47:48.774Z,15.30
2017-08-12T04:50:16.267Z,15.20
2017-08-12T04:52:43.766Z,15.10
2017-08-12T04:55:11.311Z,15.10
2017-08-12T04:57:38.836Z,15.20
2017-08-12T05:00:06.319Z,15.20
2017-08-12T05:02:33.834Z,15.10
2017-08-12T05:05:02.108Z,15.20
2017-08-12T05:07:30.472Z,15.20
2017-08-12T05:09:57.987Z,15.20
2017-08-12T05:12:25.514Z,15.10
2017-08-12T05:14:53.783Z,15.10
2017-08-12T05:17:22.067Z,15.00
2017-08-12T05:19:50.312Z,15.00
2017-08-12T05:22:17.803Z,15.00
2017-08-12T05:24:46.064Z,15.10
2017-08-12T05:27:14.672Z,15.10
2017-08-12T05:29:42.176Z,15.10
2017-08-12T05:32:09.665Z,15.10
2017-08-12T05:34:37.190Z,15.10
2017-08-12T05:37:04.716Z,15.10
2017-08-12T05:39:32.236Z,15.10
2017-08-12T05:42:00.507Z,15.00
2017-08-12T05:44:28.063Z,15.00
2017-08-12T05:46:55.591Z,15.00
2017-08-12T05:49:23.105Z,15.00
2017-08-12T05:51:51.404Z,15.00
2017-08-12T05:54:18.886Z,15.00
2017-08-12T05:56:46.404Z,15.00
2017-08-12T05:59:13.914Z,15.00
2017-08-12T06:01:41.429Z,14.90
2017-08-12T06:04:09.675Z,14.90
2017-08-12T06:06:37.165Z,14.90
2017-08-12T06:09:05.442Z,14.90
2017-08-12T06:11:33.729Z,14.90
2017-08-12T06:14:01.235Z,14.90
2017-08-12T06:16:28.723Z,14.90
2017-08-12T06:18:56.989Z,14.90
2017-08-12T06:21:24.482Z,14.80
2017-08-12T06:23:51.982Z,14.90
2017-08-12T06:26:19.480Z,15.00
2017-08-12T06:28:47.739Z,14.90
2017-08-12T06:31:15.231Z,14.90
2017-08-12T06:33:42.752Z,15.00
2017-08-12T06:36:10.266Z,15.00
2017-08-12T06:38:37.751Z,15.00
2017-08-12T06:41:05.276Z,15.20
2017-08-12T06:43:32.760Z,15.20
2017-08-12T06:46:00.241Z,15.20
2017-08-12T06:48:27.758Z,15.10
2017-08-12T06:50:55.247Z,15.10
2017-08-12T06:53:22.733Z,15.00
2017-08-12T06:55:50.238Z,15.00
2017-08-12T06:58:17.780Z,15.00
2017-08-12T07:00:45.313Z,15.00
2017-08-12T07:03:12.817Z,15.00
2017-08-12T07:05:40.307Z,15.00
2017-08-12T07:08:07.822Z,14.90
2017-08-12T07:10:35.340Z,14.80
2017-08-12T07:13:02.860Z,14.80
2017-08-12T07:15:30.435Z,14.60
2017-08-12T07:17:57.953Z,14.60
2017-08-12T07:20:25.461Z,14.60
2017-08-12T07:22:53.001Z,14.50
2017-08-12T07:25:20.483Z,14.50
2017-08-12T07:27:48.115Z,14.50
2017-08-12T07:30:15.595Z,14.50
2017-08-12T07:32:43.113Z,14.50
2017-08-12T07:35:10.655Z,14.50
2017-08-12T07:37:38.534Z,14.50
2017-08-12T07:40:06.044Z,14.50
2017-08-12T07:42:33.532Z,14.60
2017-08-12T07:45:01.041Z,14.60
2017-08-12T07:47:28.511Z,14.60
2017-08-12T07:49:56.012Z,14.70
2017-08-12T07:52:23.694Z,14.70
2017-08-12T07:54:51.175Z,14.70
2017-08-12T07:57:18.663Z,14.70
2017-08-12T07:59:46.924Z,14.70
2017-08-12T08:02:14.433Z,14.70
2017-08-12T08:04:42.715Z,14.70
2017-08-12T08:07:10.993Z,14.70
2017-08-12T08:09:39.250Z,14.80
2017-08-12T08:12:06.758Z,14.70
2017-08-12T08:14:34.273Z,14.70
2017-08-12T08:17:01.777Z,14.70
2017-08-12T08:19:29.310Z,14.60
2017-08-12T08:21:57.578Z,14.50
2017-08-12T08:24:25.855Z,14.50
2017-08-12T08:26:54.118Z,14.40
2017-08-12T08:29:21.689Z,14.40
2017-08-12T08:31:49.182Z,14.40
2017-08-12T08:34:16.742Z,14.40
2017-08-12T08:36:47.886Z,14.30
2017-08-12T08:39:15.391Z,14.20
2017-08-12T08:41:42.891Z,14.20
2017-08-12T08:44:10.393Z,14.30
2017-08-12T08:46:37.934Z,14.30
2017-08-12T08:49:05.446Z,14.30
2017-08-12T08:51:32.951Z,14.30
2017-08-12T08:54:00.446Z,14.30
2017-08-12T08:56:27.933Z,14.30
2017-08-12T08:58:56.181Z,14.30
2017-08-12T09:01:23.687Z,14.20
2017-08-12T09:03:51.184Z,14.20
2017-08-12T09:06:18.687Z,14.20
2017-08-12T09:08:46.287Z,14.20
2017-08-12T09:11:13.813Z,14.30
2017-08-12T09:13:41.314Z,14.20
2017-08-12T09:16:08.835Z,14.30
2017-08-12T09:18:36.350Z,14.30
2017-08-12T09:21:04.222Z,14.30
2017-08-12T09:23:31.743Z,14.40
2017-08-12T09:25:59.255Z,14.50
2017-08-12T09:28:27.508Z,14.60
2017-08-12T09:30:54.992Z,14.60
2017-08-12T09:33:22.499Z,14.70
2017-08-12T09:35:49.998Z,14.70
2017-08-12T09:38:17.524Z,14.80
2017-08-12T09:40:44.987Z,14.90
2017-08-12T09:43:12.476Z,14.90
2017-08-12T09:45:39.970Z,15.00
2017-08-12T09:48:07.512Z,15.10
2017-08-12T09:50:35.011Z,15.20
2017-08-12T09:53:02.505Z,15.20
2017-08-12T09:55:29.996Z,15.30
2017-08-12T09:57:57.505Z,15.30
2017-08-12T10:00:25.004Z,15.40
2017-08-12T10:02:52.532Z,15.50
2017-08-12T10:05:20.063Z,15.50
2017-08-12T10:07:47.558Z,15.50
2017-08-12T10:10:15.086Z,15.40
2017-08-12T10:12:42.574Z,15.40
2017-08-12T10:15:10.196Z,15.40
2017-08-12T10:17:37.684Z,15.50
2017-08-12T10:20:05.181Z,15.50
2017-08-12T10:22:33.484Z,15.60
2017-08-12T10:25:00.983Z,15.60
2017-08-12T10:27:28.495Z,15.70
2017-08-12T10:29:56.000Z,15.80
2017-08-12T10:32:23.496Z,15.90
2017-08-12T10:34:51.770Z,16.20
2017-08-12T10:37:20.028Z,16.40
2017-08-12T10:39:47.554Z,16.30
2017-08-12T10:42:15.162Z,16.60
2017-08-12T10:44:43.449Z,16.80
2017-08-12T10:47:11.721Z,16.90
2017-08-12T10:49:40.061Z,16.80
2017-08-12T10:52:07.584Z,16.80
2017-08-12T10:54:35.091Z,16.80
2017-08-12T10:57:02.571Z,17.00
2017-08-12T10:59:30.844Z,17.30
2017-08-12T11:01:59.175Z,17.30
2017-08-12T11:04:26.723Z,17.30
2017-08-12T11:06:54.235Z,17.30
2017-08-12T11:09:21.749Z,17.20
2017-08-12T11:11:49.549Z,17.10
2017-08-12T11:14:17.182Z,17.00
2017-08-12T11:16:44.691Z,16.90
2017-08-12T11:19:12.947Z,16.90
2017-08-12T11:21:40.758Z,16.90
2017-08-12T11:24:09.122Z,17.10
2017-08-12T11:26:37.409Z,17.10
2017-08-12T11:29:04.903Z,17.00
2017-08-12T11:31:32.415Z,17.10
2017-08-12T11:33:59.919Z,17.20
2017-08-12T11:36:27.437Z,17.20
2017-08-12T11:38:55.727Z,17.10
2017-08-12T11:41:23.272Z,17.10
2017-08-12T11:43:50.761Z,17.10
2017-08-12T11:46:18.267Z,17.10
2017-08-12T11:48:45.771Z,17.10
2017-08-12T11:51:13.298Z,17.10
2017-08-12T11:53:40.789Z,17.10
2017-08-12T11:56:08.376Z,17.10
2017-08-12T11:58:35.909Z,17.10
2017-08-12T12:01:03.405Z,17.10
2017-08-12T12:03:30.913Z,17.00
2017-08-12T12:05:58.470Z,17.00
2017-08-12T12:08:25.997Z,17.10
2017-08-12T12:10:53.493Z,17.30
2017-08-12T12:13:21.040Z,17.60
2017-08-12T12:15:48.529Z,17.70
2017-08-12T12:18:16.043Z,17.80
2017-08-12T12:20:43.556Z,18.00
2017-08-12T12:23:11.108Z,18.00
2017-08-12T12:25:38.995Z,18.00
2017-08-12T12:28:06.515Z,18.10
2017-08-12T12:30:34.034Z,18.10
2017-08-12T12:33:01.581Z,18.20
2017-08-12T12:35:29.069Z,18.30
2017-08-12T12:37:57.435Z,18.40
2017-08-12T12:40:24.939Z,18.40
2017-08-12T12:42:52.469Z,18.40
2017-08-12T12:45:19.985Z,18.60
2017-08-12T12:47:47.487Z,18.80
2017-08-12T12:50:14.992Z,18.80
2017-08-12T12:52:42.508Z,19.00
2017-08-12T12:55:10.781Z,19.00
2017-08-12T12:57:39.079Z,19.00
2017-08-12T13:00:08.160Z,19.00
2017-08-12T13:02:36.447Z,18.90
2017-08-12T13:05:04.708Z,18.70
2017-08-12T13:07:32.999Z,18.60
2017-08-12T13:10:01.266Z,18.50
2017-08-12T13:12:29.611Z,18.30
2017-08-12T13:14:57.126Z,18.30
2017-08-12T13:17:24.662Z,18.30
2017-08-12T13:19:52.935Z,18.30
2017-08-12T13:22:20.433Z,18.30
2017-08-12T13:24:47.932Z,18.40
2017-08-12T13:27:15.426Z,18.40
2017-08-12T13:29:42.966Z,18.40
2017-08-12T13:32:11.606Z,18.40
2017-08-12T13:34:39.321Z,18.30
2017-08-12T13:37:10.616Z,18.30
2017-08-12T13:39:41.779Z,18.30
2017-08-12T13:42:09.289Z,18.30
2017-08-12T13:44:37.547Z,18.50
2017-08-12T13:47:12.670Z,18.40
2017-08-12T13:49:40.212Z,18.60
2017-08-12T13:52:07.710Z,18.80
2017-08-12T13:54:35.989Z,19.20
2017-08-12T13:57:03.526Z,19.20
2017-08-12T13:59:31.022Z,19.50
2017-08-12T14:01:58.545Z,19.60
2017-08-12T14:04:26.094Z,19.40
2017-08-12T14:06:53.583Z,19.20
2017-08-12T14:09:21.116Z,19.20
2017-08-12T14:11:48.656Z,19.10
2017-08-12T14:14:16.182Z,19.10
2017-08-12T14:16:43.689Z,19.10
2017-08-12T14:19:11.187Z,19.20
2017-08-12T14:21:39.455Z,19.80
2017-08-12T14:24:07.824Z,20.30
2017-08-12T14:26:35.334Z,20.30
2017-08-12T14:29:02.826Z,20.50
2017-08-12T14:31:30.332Z,20.70
2017-08-12T14:33:57.848Z,20.60
2017-08-12T14:36:25.341Z,20.30
2017-08-12T14:38:52.849Z,20.10
2017-08-12T14:41:20.346Z,19.90
2017-08-12T14:43:48.631Z,19.70
2017-08-12T14:46:17.047Z,19.70
2017-08-12T14:48:44.544Z,19.70
2017-08-12T14:51:12.030Z,19.60
2017-08-12T14:53:40.336Z,19.40
2017-08-12T14:56:07.845Z,19.30
2017-08-12T14:58:35.368Z,19.40
2017-08-12T15:01:02.872Z,19.40
2017-08-12T15:03:30.374Z,19.40
2017-08-12T15:05:57.871Z,19.40
2017-08-12T15:08:25.405Z,19.40
2017-08-12T15:10:52.917Z,19.40
2017-08-12T15:13:21.186Z,19.40
2017-08-12T15:15:48.680Z,19.40
2017-08-12T15:18:16.172Z,19.50
2017-08-12T15:20:43.720Z,19.50
2017-08-12T15:23:11.222Z,19.50
2017-08-12T15:25:38.724Z,19.60
2017-08-12T15:28:06.246Z,19.60
2017-08-12T15:30:33.750Z,19.80
2017-08-12T15:33:01.238Z,19.90
2017-08-12T15:35:28.789Z,20.00
2017-08-12T15:37:56.272Z,20.10
2017-08-12T15:40:23.806Z,20.10
2017-08-12T15:42:51.272Z,20.00
2017-08-12T15:45:18.802Z,20.00
2017-08-12T15:47:46.289Z,20.10
2017-08-12T15:50:13.798Z,20.10
2017-08-12T15:52:41.343Z,19.90
2017-08-12T15:55:09.597Z,19.80
2017-08-12T15:57:37.138Z,19.80
2017-08-12T16:00:04.627Z,19.90
2017-08-12T16:02:32.186Z,19.90
2017-08-12T16:04:59.717Z,19.90
2017-08-12T16:07:27.205Z,20.00
2017-08-12T16:09:54.722Z,20.20
2017-08-12T16:12:22.190Z,20.30
2017-08-12T16:14:49.708Z,20.50
2017-08-12T16:17:17.586Z,20.60
2017-08-12T16:19:45.085Z,20.70
2017-08-12T16:22:12.598Z,20.60
2017-08-12T16:24:40.131Z,20.80
2017-08-12T16:27:08.396Z,20.90
2017-08-12T16:29:37.041Z,20.80
2017-08-12T16:32:04.533Z,20.90
2017-08-12T16:34:32.046Z,21.20
2017-08-12T16:36:59.540Z,21.00
2017-08-12T16:39:27.090Z,20.70
2017-08-12T16:41:54.595Z,20.60
2017-08-12T16:44:22.855Z,21.10
2017-08-12T16:46:50.350Z,21.10
2017-08-12T16:49:17.891Z,21.20
2017-08-12T16:51:45.411Z,21.10
2017-08-12T16:54:12.959Z,21.20
2017-08-12T16:56:40.487Z,21.10
2017-08-12T16:59:07.998Z,20.90
2017-08-12T17:01:35.476Z,20.90
2017-08-12T17:04:03.111Z,20.80
2017-08-12T17:06:30.935Z,20.60
2017-08-12T17:08:58.429Z,20.40
2017-08-12T17:11:25.922Z,20.40
2017-08-12T17:13:55.023Z,20.20
2017-08-12T17:16:23.295Z,19.90
2017-08-12T17:18:51.573Z,19.90
2017-08-12T17:21:19.097Z,19.90
2017-08-12T17:23:46.668Z,19.90
2017-08-12T17:26:15.177Z,19.90
2017-08-12T17:28:43.429Z,19.80
2017-08-12T17:31:11.064Z,19.70
2017-08-12T17:33:38.568Z,19.70
2017-08-12T17:36:06.500Z,19.60
2017-08-12T17:38:34.034Z,19.60
2017-08-12T17:41:01.558Z,19.60
2017-08-12T17:43:29.052Z,19.50
2017-08-12T17:45:56.581Z,19.60
2017-08-12T17:48:24.146Z,19.70
2017-08-12T17:50:52.431Z,19.80
2017-08-12T17:53:20.703Z,19.70
2017-08-12T17:55:48.964Z,19.80
2017-08-12T17:58:16.454Z,19.70
2017-08-12T18:00:44.013Z,19.90
2017-08-12T18:03:11.567Z,19.80
2017-08-12T18:05:39.826Z,19.70
2017-08-12T18:08:07.356Z,19.70
2017-08-12T18:10:34.855Z,19.60
2017-08-12T18:13:02.335Z,19.60
2017-08-12T18:15:29.865Z,19.60
2017-08-12T18:17:58.179Z,19.40
2017-08-12T18:20:25.674Z,19.40
2017-08-12T18:22:53.183Z,19.30
2017-08-12T18:25:20.684Z,19.30
2017-08-12T18:27:48.171Z,19.20
2017-08-12T18:30:15.671Z,19.10
2017-08-12T18:32:43.165Z,19.10
2017-08-12T18:35:10.685Z,19.10
2017-08-12T18:37:38.175Z,19.10
2017-08-12T18:40:05.680Z,19.00
2017-08-12T18:42:33.980Z,19.00
2017-08-12T18:45:01.470Z,19.00
2017-08-12T18:47:28.973Z,19.00
2017-08-12T18:49:56.490Z,18.90
2017-08-12T18:52:23.979Z,18.90
2017-08-12T18:54:51.502Z,18.90
2017-08-12T18:57:19.019Z,18.90
2017-08-12T18:59:46.496Z,18.90
2017-08-12T19:02:14.013Z,19.00
2017-08-12T19:04:41.527Z,18.90
2017-08-12T19:07:09.028Z,18.90
2017-08-12T19:09:36.532Z,18.90
2017-08-12T19:12:04.124Z,18.80
2017-08-12T19:14:31.618Z,18.70
2017-08-12T19:16:59.149Z,18.50
2017-08-12T19:19:26.660Z,18.30
2017-08-12T19:21:54.159Z,18.00
2017-08-12T19:24:21.653Z,17.80
2017-08-12T19:26:49.131Z,17.60
2017-08-12T19:29:16.643Z,17.40
2017-08-12T19:31:44.164Z,17.20
2017-08-12T19:34:11.656Z,17.00
2017-08-12T19:36:39.154Z,16.80
2017-08-12T19:39:06.652Z,16.70
2017-08-12T19:41:34.178Z,16.60
2017-08-12T19:44:02.537Z,16.60
2017-08-12T19:46:30.043Z,16.60
2017-08-12T19:48:57.586Z,16.60
2017-08-12T19:51:25.068Z,16.60
2017-08-12T19:53:52.561Z,16.50
2017-08-12T19:56:20.074Z,16.60
2017-08-12T19:58:47.626Z,16.60
2017-08-12T20:01:15.163Z,16.50
2017-08-12T20:03:42.647Z,16.50
2017-08-12T20:06:10.168Z,16.60
2017-08-12T20:08:38.605Z,16.70
2017-08-12T20:11:06.132Z,16.80
2017-08-12T20:13:34.405Z,16.80
2017-08-12T20:16:02.750Z,16.80
2017-08-12T20:18:30.242Z,16.80
2017-08-12T20:20:57.789Z,16.90
2017-08-12T20:23:25.586Z,16.90
2017-08-12T20:25:53.120Z,16.90
2017-08-12T20:28:21.480Z,16.80
2017-08-12T20:30:48.995Z,16.80
2017-08-12T20:33:16.567Z,16.70
2017-08-12T20:35:44.054Z,16.80
2017-08-12T20:38:11.546Z,16.70
2017-08-12T20:40:39.047Z,16.80
2017-08-12T20:43:06.536Z,16.80
2017-08-12T20:45:34.036Z,16.80
2017-08-12T20:48:01.532Z,16.70
2017-08-12T20:50:29.040Z,16.80
2017-08-12T20:52:56.554Z,16.70
2017-08-12T20:55:24.058Z,16.70
2017-08-12T20:57:52.392Z,16.60
2017-08-12T21:00:19.891Z,16.60
2017-08-12T21:02:47.393Z,16.60
2017-08-12T21:05:14.923Z,16.50
2017-08-12T21:07:42.415Z,16.60
2017-08-12T21:10:09.931Z,16.70
2017-08-12T21:12:37.450Z,16.70
2017-08-12T21:15:04.950Z,16.80
2017-08-12T21:17:33.226Z,16.70
2017-08-12T21:20:01.816Z,16.80
2017-08-12T21:22:29.296Z,16.80
2017-08-12T21:24:56.783Z,16.70
2017-08-12T21:27:27.222Z,16.80
2017-08-12T21:29:54.756Z,16.80
2017-08-12T21:32:22.326Z,16.80
2017-08-12T21:34:49.839Z,16.80
2017-08-12T21:37:17.392Z,16.80
2017-08-12T21:39:45.662Z,16.70
2017-08-12T21:42:13.929Z,16.70
2017-08-12T21:44:41.443Z,16.70
2017-08-12T21:47:08.955Z,16.70
2017-08-12T21:49:36.446Z,16.70
2017-08-12T21:52:03.965Z,16.80
2017-08-12T21:54:31.475Z,16.70
2017-08-12T21:56:58.962Z,16.70
2017-08-12T21:59:26.467Z,16.70
2017-08-12T22:01:53.988Z,16.70
2017-08-12T22:04:21.500Z,16.70
2017-08-12T22:06:49.005Z,16.80
2017-08-12T22:09:16.514Z,16.80
2017-08-12T22:11:44.023Z,16.80
2017-08-12T22:14:11.517Z,16.80
2017-08-12T22:16:39.058Z,16.80
2017-08-12T22:19:06.616Z,16.80
2017-08-12T22:21:34.104Z,16.80
2017-08-12T22:24:01.612Z,16.80
2017-08-12T22:26:29.153Z,16.90
2017-08-12T22:28:56.662Z,16.80
2017-08-12T22:31:24.976Z,16.90
2017-08-12T22:33:52.480Z,16.90
2017-08-12T22:36:19.963Z,17.00
2017-08-12T22:38:47.455Z,16.90
2017-08-12T22:41:14.967Z,16.90
2017-08-12T22:43:42.511Z,16.90
2017-08-12T22:46:09.998Z,16.90
2017-08-12T22:48:37.506Z,17.00
2017-08-12T22:51:05.055Z,17.00
2017-08-12T22:53:32.659Z,16.90
2017-08-12T22:56:00.164Z,16.90
2017-08-12T22:58:27.673Z,16.80
2017-08-12T23:00:55.220Z,16.80
2017-08-12T23:03:22.740Z,16.80
2017-08-12T23:05:50.247Z,16.80
2017-08-12T23:08:17.736Z,16.80
2017-08-12T23:10:45.264Z,16.80
2017-08-12T23:13:12.762Z,16.80
2017-08-12T23:15:40.289Z,16.80
2017-08-12T23:18:07.782Z,16.80
2017-08-12T23:20:35.305Z,16.80
2017-08-12T23:23:02.807Z,16.80
2017-08-12T23:25:30.306Z,16.90
2017-08-12T23:27:57.821Z,16.80
2017-08-12T23:30:25.330Z,16.80
2017-08-12T23:32:52.825Z,16.80
2017-08-12T23:35:21.135Z,16.80
2017-08-12T23:37:48.669Z,16.80
2017-08-12T23:40:16.172Z,16.80
2017-08-12T23:42:43.714Z,16.70
2017-08-12T23:45:11.232Z,16.70
2017-08-12T23:47:38.741Z,16.80
2017-08-12T23:50:06.229Z,16.80
2017-08-12T23:52:34.858Z,16.90
2017-08-12T23:55:02.364Z,16.90
2017-08-12T23:57:29.886Z,17.00
2017-08-12T23:59:57.392Z,17.00
